Tropical Cyclones
[Index]
Main Index Home Page Stock Weather Photos Extreme Storms Discussion Storm News and Storm Chasing Reports Tropical Cyclones / Hurricanes / Typhoons Weather Data and Links Wild Fires / Bushfires Weather Observation Techniques Weather Picture Catalogue Tornado Pictures and Reports Stock Video Footage and DVDs for sale
Season 1985-1986 Tropical Cyclone VICTOR Track Map
Season 1985-1986 Summaries: [BoM-AU] [JTWC-AU] [JTWC-SIO] [JTWC-SPAC] [JTWC-SH]
<<- Previous TC | JTWC 1985-1986 Season | Next TC ->>

click for intensity scale information  Lat/long Grid: Show Hide

 Date Labels: Show Hide

Joint Typhoon Warning Centre Cyclone Data

Name: VICTOR

02 Mar 1986 12:00 UTC to 09 Mar 1986 00:00 UTC

    date/time    lat    long     hPa   cat  kts
1986-03-02 12   13.6   124.7                  25          
1986-03-02 18   13.7   124.2                  25          
1986-03-03 00   13.9   123.5                  30          
1986-03-03 06   14.1   122.7                  30          
1986-03-03 12   14.3   121.8                  35          
1986-03-03 18   14.6   121.1            1     40          
1986-03-04 00   15.0   120.3            1     45          
1986-03-04 06   15.4   119.4            2     55          
1986-03-04 12   15.8   118.4            2     70          
1986-03-04 18   16.3   117.6            3     80          
1986-03-05 00   16.9   116.8            3     90          
1986-03-05 06   17.4   116.1            4    100          
1986-03-05 12   17.9   115.5            4    105          
1986-03-05 18   18.3   115.0            4    105          
1986-03-06 00   18.6   114.5            4    100          
1986-03-06 06   19.0   114.1            3     95          
1986-03-06 12   19.5   113.6            3     90          
1986-03-06 18   20.0   113.1            3     85          
1986-03-07 00   20.5   112.5            3     80          
1986-03-07 06   21.1   112.0            3     75          
1986-03-07 12   21.7   111.5            2     70          
1986-03-07 18   22.4   111.0            2     65          
1986-03-08 00   23.2   110.4            2     55          
1986-03-08 06   24.2   109.9            1     50          
1986-03-08 12   25.2   109.5            1     40          
1986-03-08 18   26.3   109.3                  35          
1986-03-09 00   27.4   109.3                  35          
Winds are 1-min average.

Tropical cyclone tracks developed by Michael Bath using data from the Joint Typhoon Warning Centre Best Tracks and Google Maps.


[Australian Severe Weather index] [Copyright Notice] [Email Contacts] [Search This Site] [Privacy Policy]
Document: tropical_cyclone_victor.htm Updated: 18 September 2016